Five Corners, Washington
Current Conditions -  °F | °C
As of 5:58 AM on Monday 24 Nov 2014 (Local Time) from KGRF Reporting Station
Clear Clear  
Wind Chill: 35°   Ceiling: Unl
Heat Index: 35°   Visibility: 9mi
Dew Point: 34°   Wind: 1mph
Humidity: 99%   Direction: 170°S
Pressure: 30.34"   Gusts: NA
Location:  46.8659°N, 122.534°W
Report Text: KGRF 241358Z AUTO 17001KT 9SM CLR 01/01 A3034 RMK AO2 SLP280 T00140013 PWINO $
Loading
Personal Weather Stations






























Interactive Weather Map New forecast layout! Learn more

10-Day Weather Forecast

Advertisements
Track Severe Weather on mobile